Flight Track Log - Related Links

Times and Time Zones

All times are in EDT time to prevent confusion due to time zone crossing. See the PDT4155 flight status page for this flight to view local times or setup timezone preferences in your user account.

Time Position Orientation Groundspeed Altitude Reporting Facility
EDT Latitude Longitude Course Direction KTS MPH feet Rate Location/Type
Tue 07:05:00 AM 42.0348 -75.9228 180° South  Level Estimated
Tue 07:06:00 AM 41.9753 -75.9250 182° South  Level FlightAware Approximate
Tue 07:07:00 AM 41.9158 -75.9272 182° South  Level FlightAware Approximate
Tue 07:08:00 AM 41.8581 -75.9072 154° Southeast  Level Estimated
Tue 07:09:00 AM 41.8004 -75.8873 160° South  Level Estimated
Tue 07:10:00 AM 41.7411 -75.8800 175° South  Level FlightAware Approximate
Tue 07:11:00 AM 41.6835 -75.8597 159° South  Level Estimated
Tue 07:12:00 AM 41.6257 -75.8409 166° South  Level FlightAware Approximate
Tue 07:13:00 AM 41.5681 -75.8206 153° Southeast  Level Estimated
Tue 07:14:00 AM 41.5105 -75.8004 161° South  Level Estimated
Tue 07:15:00 AM 41.4545 -75.7734 160° South  Level FlightAware Approximate
Tue 07:16:00 AM 41.3984 -75.7465 160° South  Level FlightAware Approximate
Tue 07:17:00 AM 41.3407 -75.7269 162° South  Level Estimated
Tue 07:18:00 AM 41.2846 -75.7004 160° South  Level FlightAware Approximate
Tue 07:19:00 AM 41.2285 -75.6739 160° South  Level FlightAware Approximate
Tue 07:20:00 AM 41.1724 -75.6475 160° South  Level FlightAware Approximate
Tue 07:21:00 AM 41.1162 -75.6211 161° South  Level FlightAware Approximate
Tue 07:22:00 AM 41.0582 -75.6031 163° South  Level Estimated
Tue 07:23:00 AM 41.0018 -75.5777 161° South  Level FlightAware Approximate
Tue 07:24:00 AM 40.9454 -75.5524 161° South  Level FlightAware Approximate
Tue 07:25:00 AM 40.8890 -75.5270 161° South  Level FlightAware Approximate
Tue 07:26:00 AM 40.8326 -75.5018 161° South  Level FlightAware Approximate
Tue 07:27:00 AM 40.7743 -75.4857 190° South  Level Estimated
Tue 07:28:00 AM 40.7148 -75.4888 182° South  Level FlightAware Approximate
Tue 07:29:00 AM 40.6553 -75.4919 182° South  Level FlightAware Approximate
Tue 07:29:04 AM 40.6333 -75.5333 198° South 240 276 6,000  Level Philadelphia TRACON
Tue 07:29:40 AM 40.5833 -75.5333 180° South 242 278 5,500 -619 Descending Philadelphia TRACON
Tue 07:30:00 AM 40.5958 -75.4950 182° South  Level FlightAware Approximate
Tue 07:30:41 AM 40.5167 -75.5333 180° South 262 302 5,000  Level Philadelphia TRACON
Tue 07:31:00 AM 40.5383 -75.4746 187° South  Level Estimated
Tue 07:31:47 AM 40.4500 -75.4833 150° Southeast 247 284 5,000  Level Philadelphia TRACON
Tue 07:32:00 AM 40.4808 -75.4543 190° South  Level Estimated
Tue 07:32:47 AM 40.3833 -75.4333 150° Southeast 243 280 5,000  Level Philadelphia TRACON
Tue 07:33:00 AM 40.4197 -75.4797 198° South  Level FlightAware Approximate
Tue 07:33:47 AM 40.3333 -75.3833 143° Southeast 241 277 5,000  Level Philadelphia TRACON
Tue 07:34:00 AM 40.3585 -75.5051 198° South  Level FlightAware Approximate
Tue 07:34:47 AM 40.2833 -75.3333 143° Southeast 242 278 4,800  Level Philadelphia TRACON
Tue 07:35:47 AM 40.2167 -75.3000 159° South 266 306 4,000 -381 Descending Philadelphia TRACON
Tue 07:36:53 AM 40.1333 -75.2667 163° South 246 283 4,000  Level Philadelphia TRACON
Tue 07:37:53 AM 40.0833 -75.2333 153° Southeast 241 277 4,000  Level Philadelphia TRACON
Tue 07:38:53 AM 40.0167 -75.2000 159° South 235 270 4,000  Level Philadelphia TRACON
Tue 07:39:54 AM 39.9667 -75.1667 153° Southeast 215 247 4,000 -261 Level Philadelphia TRACON
Tue 07:40:48 AM 39.9167 -75.1333 153° Southeast 222 255 3,500 -526 Descending Philadelphia TRACON
Tue 07:41:48 AM 39.8500 -75.1167 169° South 214 246 3,000 -650 Descending Philadelphia TRACON
Tue 07:42:48 AM 39.8000 -75.1333 194° South 198 228 2,200 -800 Descending Philadelphia TRACON
Tue 07:43:48 AM 39.8000 -75.1833 270° West 172 198 1,400 -667 Descending Philadelphia TRACON
Tue 07:44:54 AM 39.8333 -75.2167 322° Northwest 93 107 800 -611 Descending Philadelphia TRACON
Tue 07:45:36 AM 39.8500 -75.2167 360° North 116 133 300 -714 Descending Philadelphia TRACON

Login

Don't have an account? Register now (free) for customized features, flight alerts, and more!